Time;durP1;ratioP1;P1;durP2;ratioP2;P2;SDS_P1;SDS_P2;PMS_P1;PMS_P2;Temp;Humidity;BMP_temperature;BMP_pressure;BME280_temperature;BME280_humidity;BME280_pressure;Samples;Min_cycle;Max_cycle;Signal;HPM_P1;HPM_P2
2023/04/02 00:02:21;;;;;;;10.40;4.72;;;;;;;9.99;81.30;100787.28;5071343;28;20071;-67
2023/04/02 00:05:33;;;;;;;9.15;4.40;;;;;;;9.80;80.15;100803.09;5077793;28;20052;-66
2023/04/02 00:08:09;;;;;;;11.38;4.45;;;;;;;9.74;80.86;100805.16;5050392;28;20076;-66
2023/04/02 00:10:49;;;;;;;10.80;4.53;;;;;;;9.70;80.41;100795.88;5060904;28;20400;-66
2023/04/02 00:13:17;;;;;;;13.85;4.47;;;;;;;9.68;80.60;100800.03;5077716;28;20052;-66
2023/04/02 00:15:49;;;;;;;11.48;4.90;;;;;;;9.70;80.91;100803.28;5075670;28;20056;-66
2023/04/02 00:18:19;;;;;;;9.60;4.40;;;;;;;9.79;79.89;100801.47;5077898;28;20052;-65
2023/04/02 00:20:49;;;;;;;;;;;;;;;9.78;80.35;100813.59;5059299;28;20044;-65
2023/04/02 00:23:16;;;;;;;10.50;4.87;;;;;;;9.75;80.54;100814.19;5078391;28;19920;-65
2023/04/02 00:25:45;;;;;;;10.43;4.60;;;;;;;9.69;80.11;100801.69;5075699;28;20059;-66
2023/04/02 00:28:15;;;;;;;9.15;4.28;;;;;;;9.81;80.25;100812.97;5076103;28;20056;-65
2023/04/02 00:30:49;;;;;;;;;;;;;;;9.80;79.98;100825.09;5075808;28;20136;-65
2023/04/02 00:33:19;;;;;;;10.30;4.93;;;;;;;9.85;79.83;100814.00;5060332;28;19928;-66
2023/04/02 00:35:48;;;;;;;9.10;4.15;;;;;;;9.62;80.45;100820.50;5075521;28;20056;-66
2023/04/02 00:38:25;;;;;;;8.95;4.60;;;;;;;9.73;80.40;100827.44;5055780;28;20503;-66
2023/04/02 00:40:56;;;;;;;9.05;4.78;;;;;;;9.79;79.86;100824.28;5060534;28;20036;-65
2023/04/02 00:43:26;;;;;;;13.05;5.38;;;;;;;9.68;80.39;100822.84;5076611;28;20060;-65
2023/04/02 00:45:56;;;;;;;9.15;4.85;;;;;;;10.01;79.76;100820.81;5074743;28;20052;-67
2023/04/02 00:48:36;;;;;;;12.13;5.05;;;;;;;9.98;79.18;100819.50;5075768;28;20055;-66
2023/04/02 00:51:13;;;;;;;12.77;5.47;;;;;;;10.06;78.77;100817.94;5074900;28;20044;-66
2023/04/02 00:53:44;;;;;;;10.63;4.72;;;;;;;9.72;79.78;100812.88;5076506;28;20060;-66
2023/04/02 00:56:19;;;;;;;8.95;4.63;;;;;;;9.67;80.09;100835.00;5075768;28;20385;-66
2023/04/02 00:58:51;;;;;;;11.00;4.65;;;;;;;9.79;79.69;100824.28;5059668;28;20048;-65
2023/04/02 01:01:23;;;;;;;9.45;5.00;;;;;;;9.56;80.56;100839.03;5074720;28;20041;-65
2023/04/02 01:04:00;;;;;;;17.05;5.07;;;;;;;9.43;81.40;100844.53;5075619;28;20064;-66
2023/04/02 01:06:30;;;;;;;8.48;4.70;;;;;;;9.71;81.15;100833.25;5075575;28;20140;-66
2023/04/02 01:09:10;;;;;;;10.25;4.70;;;;;;;9.72;80.46;100847.81;5076165;28;20064;-65
2023/04/02 01:11:40;;;;;;;9.50;4.53;;;;;;;9.53;81.81;100858.09;5073078;28;20056;-65
2023/04/02 01:14:26;;;;;;;8.93;4.45;;;;;;;9.57;82.77;100853.63;5076341;28;20516;-65
2023/04/02 01:16:59;;;;;;;12.25;4.72;;;;;;;9.33;84.26;100858.47;5073683;28;20063;-66
2023/04/02 01:19:47;;;;;;;11.10;5.07;;;;;;;9.37;84.90;100842.97;5076978;28;20056;-65
2023/04/02 01:22:24;;;;;;;10.77;4.80;;;;;;;9.53;84.31;100858.09;5033640;28;20060;-66
2023/04/02 01:24:56;;;;;;;8.10;4.90;;;;;;;9.42;84.18;100856.63;5055873;28;20476;-66
2023/04/02 01:27:32;;;;;;;9.32;4.25;;;;;;;9.22;85.52;100862.50;5072817;28;20127;-66
2023/04/02 01:30:00;;;;;;;11.15;4.82;;;;;;;9.17;85.75;100855.13;5075147;28;20067;-65
2023/04/02 01:32:28;;;;;;;13.10;4.50;;;;;;;9.21;85.68;100858.91;5073008;28;20044;-66
2023/04/02 01:34:57;;;;;;;7.85;4.53;;;;;;;9.43;85.33;100859.06;5076651;28;20056;-66
2023/04/02 01:37:49;;;;;;;10.73;4.35;;;;;;;9.58;84.46;100863.47;5075604;28;20048;-65
2023/04/02 01:40:31;;;;;;;11.18;4.75;;;;;;;9.54;83.74;100873.44;5076190;28;20361;-66
2023/04/02 01:43:08;;;;;;;8.25;3.95;;;;;;;9.40;85.40;100867.94;5076252;28;20516;-65
2023/04/02 01:45:35;;;;;;;10.35;4.35;;;;;;;9.12;87.61;100874.44;5073169;28;20052;-66
2023/04/02 01:48:15;;;;;;;7.68;3.60;;;;;;;9.05;88.65;100883.09;5061232;28;20049;-66
2023/04/02 01:50:44;;;;;;;8.05;3.58;;;;;;;9.08;89.14;100873.44;5058285;28;20044;-66
2023/04/02 01:53:14;;;;;;;9.52;4.18;;;;;;;9.20;88.63;100873.78;5058937;28;20048;-66
2023/04/02 01:55:46;;;;;;;8.88;3.00;;;;;;;9.09;87.46;100870.38;5056984;28;20519;-66
2023/04/02 01:58:17;;;;;;;8.05;3.53;;;;;;;9.12;87.79;100862.66;5074098;28;20059;-66
2023/04/02 02:01:11;;;;;;;10.43;3.17;;;;;;;9.26;87.71;100869.81;5073422;28;20036;-66
2023/04/02 02:03:41;;;;;;;6.07;3.08;;;;;;;9.22;87.08;100868.81;5058271;28;20055;-66
2023/04/02 02:06:13;;;;;;;6.40;2.60;;;;;;;9.35;87.23;100876.25;5073253;28;20063;-66
2023/04/02 02:08:48;;;;;;;9.80;3.15;;;;;;;9.24;86.88;100879.50;5058057;28;20063;-65
2023/04/02 02:11:20;;;;;;;8.02;3.45;;;;;;;9.26;86.86;100869.03;5053562;28;20041;-65
2023/04/02 02:13:53;;;;;;;7.10;2.80;;;;;;;9.38;86.35;100880.34;5075303;28;20049;-66
2023/04/02 02:16:21;;;;;;;5.47;2.30;;;;;;;9.15;87.24;100884.03;5039899;28;20048;-66
2023/04/02 02:18:51;;;;;;;6.88;2.72;;;;;;;9.09;88.02;100889.63;5074675;28;20055;-65
2023/04/02 02:21:33;;;;;;;9.23;3.15;;;;;;;9.20;88.76;100881.22;5072176;28;20051;-66
2023/04/02 02:24:01;;;;;;;8.00;2.97;;;;;;;9.28;87.63;100886.00;5074545;28;20056;-66
2023/04/02 02:26:28;;;;;;;8.07;2.92;;;;;;;9.25;87.63;100892.94;5074403;28;20084;-66
2023/04/02 02:28:57;;;;;;;4.95;2.20;;;;;;;8.91;89.68;100900.59;5058505;28;20048;-65
2023/04/02 02:31:28;;;;;;;5.50;2.70;;;;;;;8.78;92.24;100929.66;5055864;28;20638;-66
2023/04/02 02:34:03;;;;;;;7.47;2.83;;;;;;;8.67;93.70;100914.44;5053536;28;20052;-65
2023/04/02 02:36:48;;;;;;;4.97;2.40;;;;;;;8.63;95.36;100918.06;5065934;28;20049;-66
2023/04/02 02:39:39;;;;;;;5.90;2.45;;;;;;;8.61;96.75;100918.34;5058782;28;20056;-65
2023/04/02 02:42:16;;;;;;;8.63;2.35;;;;;;;8.55;97.85;100914.06;5072968;28;20048;-65
2023/04/02 02:44:50;;;;;;;5.38;2.80;;;;;;;8.71;98.51;100914.66;5053941;28;20052;-65
2023/04/02 02:47:21;;;;;;;4.53;2.15;;;;;;;8.84;97.10;100917.47;5056155;28;20431;-65
2023/04/02 02:49:52;;;;;;;6.07;2.22;;;;;;;8.61;97.33;100929.31;5041678;28;20057;-66
2023/04/02 02:52:25;;;;;;;5.10;1.80;;;;;;;8.61;97.88;100931.28;5057032;28;20052;-66
2023/04/02 02:55:07;;;;;;;3.38;1.80;;;;;;;8.51;98.75;100937.69;5063121;28;20052;-66
2023/04/02 02:57:52;;;;;;;5.22;1.85;;;;;;;8.39;100.00;100928.25;5060932;28;20064;-65
2023/04/02 03:00:23;;;;;;;5.38;2.05;;;;;;;8.52;99.65;100938.53;5077167;28;20060;-64
2023/04/02 03:02:53;;;;;;;6.90;2.47;;;;;;;8.53;99.59;100945.63;5057957;28;20045;-66
2023/04/02 03:05:25;;;;;;;4.28;1.88;;;;;;;8.55;99.92;100946.16;5059467;28;20052;-65
2023/04/02 03:07:57;;;;;;;4.97;1.90;;;;;;;8.62;99.36;100936.47;5060404;28;20053;-66
2023/04/02 03:10:38;;;;;;;4.40;1.70;;;;;;;8.45;100.00;100941.63;5060947;28;20060;-66
2023/04/02 03:13:14;;;;;;;2.78;1.65;;;;;;;8.52;100.00;100952.25;5077439;28;20061;-65
2023/04/02 03:16:19;;;;;;;6.20;2.05;;;;;;;8.44;100.00;100940.00;5076170;28;20059;-66
2023/04/02 03:19:15;;;;;;;3.83;1.73;;;;;;;8.46;100.00;100958.91;5078187;28;20055;-65
2023/04/02 03:22:17;;;;;;;2.67;1.60;;;;;;;8.54;99.08;100952.78;5072681;28;20063;-66
2023/04/02 03:25:02;;;;;;;4.03;2.15;;;;;;;8.67;98.19;100952.03;5077902;28;20067;-66
2023/04/02 03:27:33;;;;;;;5.70;1.80;;;;;;;8.82;97.01;100965.59;5055789;28;20057;-66
2023/04/02 03:30:28;;;;;;;5.88;1.42;;;;;;;8.62;97.60;100963.94;5058431;28;20480;-66
2023/04/02 03:33:16;;;;;;;4.55;1.90;;;;;;;8.42;98.24;100979.84;5074889;28;20056;-66
2023/04/02 03:35:48;;;;;;;2.90;1.90;;;;;;;8.35;99.06;100979.38;5058614;28;20064;-65
2023/04/02 03:38:21;;;;;;;5.95;1.92;;;;;;;8.35;98.75;100979.38;5077889;28;20052;-66
2023/04/02 03:41:01;;;;;;;4.55;2.03;;;;;;;8.41;99.24;100980.94;5075900;28;20059;-66
2023/04/02 03:43:34;;;;;;;2.80;1.80;;;;;;;8.34;98.89;100994.19;5077208;28;20056;-66
2023/04/02 03:46:12;;;;;;;3.90;2.28;;;;;;;8.48;99.21;100997.88;5075233;28;20393;-66
2023/04/02 03:48:42;;;;;;;5.28;2.40;;;;;;;8.52;97.88;100990.69;5077404;28;20052;-65
2023/04/02 03:51:19;;;;;;;;;;;;;;;8.50;96.38;100987.41;5076337;28;20052;-65
2023/04/02 03:53:47;;;;;;;3.75;2.20;;;;;;;8.42;96.08;101004.53;5060909;28;20371;-65
2023/04/02 03:56:38;;;;;;;5.10;2.65;;;;;;;8.40;96.13;101002.09;5074942;28;20040;-65
2023/04/02 03:59:25;;;;;;;5.50;2.80;;;;;;;8.45;95.17;101010.25;5076879;28;20487;-65
2023/04/02 04:02:09;;;;;;;10.60;3.88;;;;;;;8.35;95.23;101029.56;5058567;28;20037;-65
2023/04/02 04:04:39;;;;;;;6.95;3.50;;;;;;;8.50;94.90;101010.19;5075581;28;20488;-65
2023/04/02 04:07:13;;;;;;;6.75;3.75;;;;;;;8.52;94.11;101009.91;5074704;28;20063;-65
2023/04/02 04:09:44;;;;;;;8.23;4.07;;;;;;;8.57;92.96;101015.34;5060611;28;20063;-65
2023/04/02 04:12:20;;;;;;;8.68;4.32;;;;;;;8.90;92.88;101006.13;5075414;28;20049;-66
2023/04/02 04:15:07;;;;;;;13.48;4.82;;;;;;;8.80;91.29;101018.03;5077998;28;20480;-66
2023/04/02 04:18:09;;;;;;;12.48;5.28;;;;;;;8.88;90.48;101033.88;5075712;28;20415;-67
2023/04/02 04:20:55;;;;;;;10.75;4.82;;;;;;;8.35;92.68;101029.56;5059657;28;20056;-66
2023/04/02 04:23:32;;;;;;;9.38;4.65;;;;;;;8.38;92.87;101025.44;5076215;28;20503;-66
2023/04/02 04:26:08;;;;;;;10.43;5.28;;;;;;;8.54;92.36;101040.63;5042027;28;20059;-65
2023/04/02 04:28:58;;;;;;;11.25;4.80;;;;;;;8.37;91.43;101032.84;5060474;28;20072;-65
2023/04/02 04:31:37;;;;;;;10.63;5.32;;;;;;;8.36;91.84;101046.88;5058042;28;20063;-65
2023/04/02 04:34:11;;;;;;;13.50;5.13;;;;;;;8.28;93.01;101039.28;5075412;28;20052;-65
2023/04/02 04:36:54;;;;;;;12.38;5.68;;;;;;;8.50;91.98;101059.63;5074999;28;20519;-65
2023/04/02 04:39:48;;;;;;;13.85;5.60;;;;;;;8.37;93.33;101048.50;5055360;28;20045;-65
2023/04/02 04:42:22;;;;;;;15.13;6.50;;;;;;;8.28;93.59;101042.81;5075023;28;20051;-65
2023/04/02 04:45:02;;;;;;;15.15;6.88;;;;;;;8.24;93.85;101055.50;5055905;28;20041;-66
2023/04/02 04:47:34;;;;;;;18.83;7.30;;;;;;;8.20;94.60;101053.56;5056848;28;20052;-65
2023/04/02 04:50:11;;;;;;;14.27;7.15;;;;;;;8.23;94.28;101062.03;5057111;28;20049;-65
2023/04/02 04:52:40;;;;;;;18.55;6.75;;;;;;;8.29;94.19;101062.84;5090034;28;20055;-65
2023/04/02 04:55:43;;;;;;;16.35;7.63;;;;;;;8.42;93.21;101087.69;5067709;28;20048;-65
2023/04/02 04:58:41;;;;;;;20.60;8.27;;;;;;;8.19;92.97;101080.22;5026012;28;20057;-65
2023/04/02 05:01:22;;;;;;;17.20;7.75;;;;;;;8.15;93.10;101084.63;5057483;28;20399;-64
2023/04/02 05:04:19;;;;;;;15.63;7.72;;;;;;;8.10;93.57;101090.19;5071365;28;20056;-64
2023/04/02 05:06:59;;;;;;;18.55;8.45;;;;;;;8.01;94.29;101102.88;5051592;28;20056;-64
2023/04/02 05:09:40;;;;;;;18.67;8.35;;;;;;;8.05;94.01;101101.19;5086323;28;20053;-64
2023/04/02 05:12:44;;;;;;;17.67;8.05;;;;;;;8.00;93.83;101088.31;5058184;28;20052;-64
2023/04/02 05:15:23;;;;;;;20.90;8.45;;;;;;;8.09;93.72;101098.69;5067014;28;20529;-65
2023/04/02 05:17:56;;;;;;;17.10;8.20;;;;;;;8.16;93.29;101107.41;5070258;28;20052;-64
2023/04/02 05:21:00;;;;;;;17.52;8.55;;;;;;;8.31;92.83;101110.88;5040912;28;20058;-65
2023/04/02 05:23:44;;;;;;;17.75;8.35;;;;;;;8.36;91.96;101118.22;4979150;28;20061;-66
2023/04/02 05:26:24;;;;;;;17.35;8.95;;;;;;;8.35;91.24;101116.59;5068861;28;20060;-66
2023/04/02 05:29:10;;;;;;;18.35;8.50;;;;;;;8.26;91.78;101113.66;5048984;28;20053;-66
2023/04/02 05:31:47;;;;;;;18.90;8.75;;;;;;;8.17;92.03;101133.72;5065897;28;20052;-65
2023/04/02 05:34:23;;;;;;;19.65;8.90;;;;;;;8.21;92.73;101121.09;5058751;28;20044;-64
2023/04/02 05:36:50;;;;;;;17.30;7.68;;;;;;;8.17;91.73;101128.25;5073607;28;20510;-66
2023/04/02 05:39:23;;;;;;;20.15;8.80;;;;;;;8.31;91.92;101132.00;5073505;28;20056;-67
2023/04/02 05:42:01;;;;;;;17.42;8.68;;;;;;;8.24;91.47;101137.81;5073372;28;20049;-66
2023/04/02 05:44:56;;;;;;;19.13;8.52;;;;;;;8.32;91.75;101139.94;5059764;28;20056;-66
2023/04/02 05:47:28;;;;;;;22.33;8.95;;;;;;;8.31;92.20;101165.75;5073327;28;20044;-66
2023/04/02 05:50:19;;;;;;;18.42;9.20;;;;;;;8.16;92.39;101154.06;5058224;28;20075;-66
2023/04/02 05:52:52;;;;;;;26.90;9.40;;;;;;;8.06;93.63;101163.16;5058315;28;20127;-67
2023/04/02 05:55:30;;;;;;;21.30;9.98;;;;;;;8.05;93.70;101155.22;5074862;28;20060;-66
2023/04/02 05:58:04;;;;;;;25.20;9.10;;;;;;;8.11;93.64;101168.63;5037692;28;20056;-67
2023/04/02 06:01:11;;;;;;;23.38;9.38;;;;;;;8.16;94.73;101170.53;5052128;28;20412;-68
2023/04/02 06:03:55;;;;;;;21.73;8.82;;;;;;;8.05;95.07;101160.72;5070412;28;20118;-67
2023/04/02 06:06:30;;;;;;;21.90;9.05;;;;;;;8.00;95.70;101169.81;5085465;28;20049;-67
2023/04/02 06:09:04;;;;;;;21.65;9.07;;;;;;;8.05;96.09;101168.94;5038431;28;20471;-66
2023/04/02 06:11:40;;;;;;;21.05;9.80;;;;;;;8.08;96.16;101176.59;5050220;28;20071;-65
2023/04/02 06:14:11;;;;;;;17.42;7.82;;;;;;;8.18;94.46;101171.84;5059294;28;20059;-67
2023/04/02 06:16:39;;;;;;;23.40;8.52;;;;;;;8.14;94.49;101178.22;5073437;28;20056;-66
2023/04/02 06:19:15;;;;;;;17.55;8.20;;;;;;;8.14;94.52;101187.28;5075896;28;20048;-67
2023/04/02 06:21:44;;;;;;;20.23;7.95;;;;;;;8.09;94.58;101186.50;5036757;28;20053;-67
2023/04/02 06:24:16;;;;;;;15.00;7.47;;;;;;;7.98;94.25;101193.97;5072122;28;20047;-65
2023/04/02 06:26:50;;;;;;;22.10;8.18;;;;;;;8.11;95.00;101198.00;5053450;28;20116;-67
2023/04/02 06:29:18;;;;;;;20.45;7.78;;;;;;;7.92;95.53;101186.88;5041721;28;20053;-66
2023/04/02 06:31:54;;;;;;;14.17;7.20;;;;;;;8.09;95.13;101181.78;5072385;28;20076;-65
2023/04/02 06:34:24;;;;;;;16.42;7.07;;;;;;;7.92;94.72;101204.16;5062325;28;20052;-68
2023/04/02 06:36:59;;;;;;;14.20;6.55;;;;;;;8.00;95.56;101197.25;5076544;28;20048;-66
2023/04/02 06:39:28;;;;;;;13.88;6.75;;;;;;;7.95;95.20;101202.75;5062421;28;20048;-67
2023/04/02 06:42:08;;;;;;;18.23;5.97;;;;;;;8.04;95.35;101209.28;5077079;28;20063;-65
2023/04/02 06:44:55;;;;;;;13.38;6.22;;;;;;;7.92;94.96;101217.84;5034425;28;20064;-65
2023/04/02 06:47:43;;;;;;;14.88;6.70;;;;;;;8.02;95.77;101214.22;5059560;28;20056;-65
2023/04/02 06:50:25;;;;;;;14.60;6.47;;;;;;;8.20;94.46;101209.97;5043397;28;20049;-67
2023/04/02 06:53:05;;;;;;;15.85;6.55;;;;;;;7.99;94.73;101206.56;5077781;28;20044;-67
2023/04/02 06:55:40;;;;;;;15.13;6.63;;;;;;;8.12;94.99;101218.84;5046549;28;21420;-65
2023/04/02 06:58:08;;;;;;;17.55;7.00;;;;;;;8.02;94.58;101225.19;5076614;28;20072;-66
2023/04/02 07:00:38;;;;;;;17.05;6.53;;;;;;;8.18;94.22;101223.16;5064234;28;20052;-67
2023/04/02 07:03:26;;;;;;;17.38;6.68;;;;;;;8.10;94.05;101232.84;5061774;28;20045;-67
2023/04/02 07:05:57;;;;;;;13.00;6.53;;;;;;;8.13;94.16;101237.75;5046015;28;20060;-67
2023/04/02 07:08:24;;;;;;;13.10;6.53;;;;;;;8.26;93.72;101233.59;5078354;28;20496;-65
2023/04/02 07:10:52;;;;;;;16.13;6.85;;;;;;;8.21;92.56;101245.38;5074937;28;20048;-65
2023/04/02 07:13:23;;;;;;;17.95;6.53;;;;;;;7.95;94.04;101241.97;5074411;28;20053;-65
2023/04/02 07:15:52;;;;;;;17.27;7.00;;;;;;;7.91;94.23;101257.34;5064295;28;20063;-65
2023/04/02 07:18:21;;;;;;;;;;;;;;;7.92;94.44;101249.94;5075762;28;20060;-65
2023/04/02 07:20:48;;;;;;;12.55;6.47;;;;;;;7.98;94.29;101263.34;5074830;28;19925;-64
2023/04/02 07:23:16;;;;;;;15.48;6.50;;;;;;;8.00;94.67;101263.88;5076594;28;20053;-65
2023/04/02 07:25:44;;;;;;;12.07;6.47;;;;;;;8.13;93.54;101278.06;5068913;28;20891;-65
2023/04/02 07:28:13;;;;;;;15.13;6.78;;;;;;;8.18;93.48;101275.28;5066961;28;20057;-65
2023/04/02 07:30:42;;;;;;;14.52;6.68;;;;;;;8.28;92.94;101273.34;5062221;28;20721;-64
2023/04/02 07:33:16;;;;;;;15.50;6.60;;;;;;;8.46;92.56;101278.16;5065260;28;20048;-65
2023/04/02 07:35:45;;;;;;;17.75;6.57;;;;;;;8.28;92.97;101286.25;5073739;28;20063;-65
2023/04/02 07:38:12;;;;;;;16.30;6.55;;;;;;;8.26;93.11;101292.03;5059272;28;20049;-66
2023/04/02 07:40:40;;;;;;;14.90;6.70;;;;;;;8.05;94.06;101300.63;5038344;28;20519;-65
2023/04/02 07:43:07;;;;;;;16.33;8.20;;;;;;;7.99;94.44;101295.16;5063119;28;20503;-65
2023/04/02 07:45:35;;;;;;;17.30;7.55;;;;;;;8.15;94.22;101290.41;5059758;28;20518;-66
2023/04/02 07:48:05;;;;;;;15.32;7.63;;;;;;;8.20;93.91;101315.09;5074823;28;20044;-66
2023/04/02 07:50:33;;;;;;;16.10;7.63;;;;;;;7.95;95.42;101298.75;5072587;28;20063;-65
2023/04/02 07:53:00;;;;;;;15.55;7.63;;;;;;;8.09;95.70;101305.25;5076477;28;20040;-65
2023/04/02 07:55:28;;;;;;;15.32;7.78;;;;;;;8.33;95.07;101305.44;5073138;28;20495;-65
2023/04/02 07:57:57;;;;;;;17.65;8.10;;;;;;;8.19;94.96;101321.69;5074067;28;20056;-66
2023/04/02 08:00:25;;;;;;;23.70;8.40;;;;;;;7.94;96.34;101313.56;5066227;28;20053;-66
2023/04/02 08:02:53;;;;;;;17.80;7.97;;;;;;;7.91;97.45;101323.16;5069913;28;20052;-65
2023/04/02 08:05:21;;;;;;;15.88;8.23;;;;;;;7.89;97.26;101317.16;5067095;28;20064;-65
2023/04/02 08:07:55;;;;;;;20.25;8.80;;;;;;;8.08;97.16;101344.78;5073178;28;20052;-65
2023/04/02 08:10:23;;;;;;;18.38;7.57;;;;;;;8.25;96.36;101328.81;5068114;28;20048;-66
2023/04/02 08:12:50;;;;;;;24.65;8.93;;;;;;;8.33;95.30;101336.47;5069580;28;20052;-66
2023/04/02 08:15:18;;;;;;;19.88;8.20;;;;;;;8.12;96.17;101348.63;5064850;28;20045;-66
2023/04/02 08:17:46;;;;;;;17.20;7.55;;;;;;;8.15;95.50;101338.97;5070165;28;20040;-70
2023/04/02 08:20:20;;;;;;;19.00;8.00;;;;;;;8.12;95.79;101339.56;5066698;28;20056;-67
2023/04/02 08:22:50;;;;;;;22.27;8.93;;;;;;;8.02;96.14;101343.16;5057196;28;20072;-71
2023/04/02 08:25:17;;;;;;;17.88;9.40;;;;;;;7.99;96.68;101338.22;5060344;28;20606;-70
2023/04/02 08:27:48;;;;;;;25.63;10.10;;;;;;;8.06;96.46;101352.47;5068807;28;20053;-70
2023/04/02 08:30:16;;;;;;;31.17;11.07;;;;;;;8.07;96.22;101351.38;5064959;28;20056;-69
2023/04/02 08:32:45;;;;;;;;;;;;;;;8.07;96.05;101361.53;5059643;28;20049;-66
2023/04/02 08:35:15;;;;;;;23.42;11.20;;;;;;;8.28;95.52;101355.69;5064446;28;19921;-65
2023/04/02 08:37:42;;;;;;;21.92;9.93;;;;;;;8.25;94.43;101356.25;5075065;28;20048;-63
2023/04/02 08:40:21;;;;;;;27.23;11.70;;;;;;;8.21;94.71;101370.78;5072965;28;20067;-65
2023/04/02 08:43:01;;;;;;;24.07;12.80;;;;;;;8.26;94.72;101371.63;5067931;28;20056;-64
2023/04/02 08:45:45;;;;;;;27.40;12.85;;;;;;;8.15;94.66;101372.72;5062771;28;20060;-64
2023/04/02 08:48:14;;;;;;;22.95;11.75;;;;;;;8.11;93.77;101382.63;5067908;28;20059;-65
2023/04/02 08:50:42;;;;;;;24.77;10.82;;;;;;;7.91;93.82;101380.78;5025995;28;20060;-64
2023/04/02 08:53:18;;;;;;;24.95;12.13;;;;;;;8.01;94.18;101379.94;5068272;28;20057;-67
2023/04/02 08:56:16;;;;;;;24.45;11.98;;;;;;;8.23;93.35;101387.81;5065930;28;20049;-65
2023/04/02 08:58:50;;;;;;;19.65;10.43;;;;;;;8.25;91.85;101391.09;5062599;28;20395;-65
2023/04/02 09:01:26;;;;;;;19.48;9.55;;;;;;;8.39;91.21;101390.22;5073405;28;20051;-65
2023/04/02 09:03:56;;;;;;;15.82;7.55;;;;;;;8.26;89.46;101398.25;5070798;28;20048;-65
2023/04/02 09:06:24;;;;;;;17.13;7.18;;;;;;;8.31;89.31;101421.00;5069574;28;20060;-63
2023/04/02 09:08:52;;;;;;;16.25;6.63;;;;;;;8.27;89.29;101405.34;5075701;28;20056;-66
2023/04/02 09:11:40;;;;;;;15.25;7.15;;;;;;;8.45;88.27;101416.53;5073567;28;20149;-66
2023/04/02 09:14:16;;;;;;;16.27;7.45;;;;;;;8.36;88.92;101420.97;5064070;28;20049;-67
2023/04/02 09:16:48;;;;;;;17.67;7.93;;;;;;;8.42;88.68;101419.84;5053259;28;20064;-66
2023/04/02 09:19:20;;;;;;;22.08;8.65;;;;;;;8.53;89.11;101424.19;5064713;28;20053;-65
2023/04/02 09:22:20;;;;;;;15.75;7.72;;;;;;;8.56;88.48;101425.56;5052981;28;20479;-64
2023/04/02 09:24:53;;;;;;;18.88;8.75;;;;;;;8.58;89.06;101445.28;5051717;28;20057;-66
2023/04/02 09:27:24;;;;;;;22.45;9.15;;;;;;;8.35;88.61;101440.47;5072220;28;20404;-67
2023/04/02 09:30:13;;;;;;;20.88;8.45;;;;;;;8.49;88.92;101441.50;5074330;28;20086;-67
2023/04/02 09:32:48;;;;;;;19.03;8.43;;;;;;;8.64;88.72;101442.25;5066519;28;20056;-64
2023/04/02 09:35:28;;;;;;;19.50;7.80;;;;;;;8.90;87.48;101449.25;5069589;28;20053;-65
2023/04/02 09:38:14;;;;;;;;;;;;;;;9.01;86.36;101461.78;5070222;28;20044;-66
2023/04/02 09:40:57;;;;;;;22.92;8.93;;;;;;;9.14;85.91;101446.59;5062158;28;20363;-65
2023/04/02 09:43:35;;;;;;;22.33;7.65;;;;;;;9.05;84.93;101460.13;5071498;28;20048;-64
2023/04/02 09:46:03;;;;;;;24.98;9.55;;;;;;;8.91;86.11;101461.84;5070050;28;20052;-64
2023/04/02 09:48:33;;;;;;;28.42;8.60;;;;;;;8.99;85.82;101455.78;5075146;28;20052;-64
2023/04/02 09:51:09;;;;;;;;;;;;;;;9.04;85.27;101466.72;5070929;28;20063;-73
2023/04/02 09:53:38;;;;;;;24.23;8.93;;;;;;;8.58;86.10;101472.75;5070368;28;19920;-66
2023/04/02 09:56:18;;;;;;;30.13;9.35;;;;;;;8.47;87.79;101466.47;5060823;28;20610;-65
2023/04/02 09:58:46;;;;;;;24.42;8.85;;;;;;;8.68;87.10;101470.78;5072031;28;20048;-66
2023/04/02 10:01:29;;;;;;;22.52;7.82;;;;;;;8.50;87.65;101468.69;5065273;28;20052;-65
2023/04/02 10:03:58;;;;;;;27.10;8.52;;;;;;;8.70;87.36;101476.00;5071904;28;20049;-65
2023/04/02 10:06:30;;;;;;;29.90;9.65;;;;;;;8.66;87.34;101486.72;5060081;28;20373;-65
2023/04/02 10:09:25;;;;;;;25.70;9.00;;;;;;;8.79;86.47;101483.34;5070155;28;20056;-65
2023/04/02 10:11:55;;;;;;;22.77;8.73;;;;;;;8.87;86.23;101507.47;5066249;28;20057;-62
2023/04/02 10:14:26;;;;;;;21.77;8.52;;;;;;;8.82;86.21;101488.28;5062851;28;20043;-64
2023/04/02 10:17:09;;;;;;;26.92;8.88;;;;;;;8.69;86.63;101519.13;5065500;28;20052;-64
2023/04/02 10:19:39;;;;;;;26.38;8.85;;;;;;;8.52;86.16;101506.84;5059029;28;20439;-62
2023/04/02 10:22:14;;;;;;;30.85;8.20;;;;;;;8.55;85.81;101512.59;5068562;28;20056;-64
2023/04/02 10:24:41;;;;;;;25.17;6.95;;;;;;;8.45;85.67;101514.53;5060109;28;20498;-63
2023/04/02 10:27:41;;;;;;;22.30;6.38;;;;;;;8.57;85.26;101515.03;5070238;28;20052;-65
2023/04/02 10:30:17;;;;;;;23.48;6.75;;;;;;;8.49;85.41;101505.47;5068120;28;20045;-62
2023/04/02 10:33:00;;;;;;;26.13;7.28;;;;;;;8.47;84.81;101517.84;5062319;28;20488;-66
2023/04/02 10:35:46;;;;;;;28.35;6.85;;;;;;;8.50;84.72;101515.34;5077821;28;20052;-64
2023/04/02 10:38:46;;;;;;;24.92;7.40;;;;;;;8.62;84.67;101523.25;5073765;28;20472;-64
2023/04/02 10:41:41;;;;;;;21.88;6.55;;;;;;;8.71;84.70;101522.41;5029323;28;20064;-65
2023/04/02 10:44:11;;;;;;;24.45;7.88;;;;;;;8.95;83.70;101533.53;5061940;28;20052;-64
2023/04/02 10:46:57;;;;;;;24.10;7.07;;;;;;;8.75;83.04;101561.13;5062561;28;20067;-64
2023/04/02 10:49:35;;;;;;;26.45;6.88;;;;;;;8.62;83.33;101554.28;5059191;28;20052;-63
2023/04/02 10:52:33;;;;;;;24.13;7.40;;;;;;;8.77;82.97;101528.72;5065075;28;20056;-64
2023/04/02 10:55:05;;;;;;;26.08;7.75;;;;;;;9.03;82.59;101538.47;5057395;28;20045;-64
2023/04/02 10:57:39;;;;;;;25.27;7.75;;;;;;;9.01;82.66;101544.22;5072401;28;20048;-64
2023/04/02 11:00:15;;;;;;;26.50;8.75;;;;;;;8.75;83.19;101545.44;5057483;28;20051;-64
2023/04/02 11:02:54;;;;;;;22.90;8.55;;;;;;;8.99;82.91;101549.19;5059014;28;20407;-63
2023/04/02 11:05:30;;;;;;;23.98;8.45;;;;;;;8.84;82.83;101549.25;5044257;28;20049;-63
2023/04/02 11:08:21;;;;;;;34.05;10.07;;;;;;;8.93;83.36;101546.75;5057240;28;20048;-63
2023/04/02 11:10:55;;;;;;;30.33;10.35;;;;;;;8.83;84.02;101558.63;5062456;28;20052;-64
2023/04/02 11:13:27;;;;;;;29.17;9.82;;;;;;;9.08;83.27;101554.91;5058638;28;20406;-64
2023/04/02 11:15:54;;;;;;;26.23;10.20;;;;;;;9.21;81.88;101565.28;5071189;28;20052;-63
2023/04/02 11:18:35;;;;;;;29.83;10.02;;;;;;;8.87;82.40;101556.91;5062829;28;20040;-63
2023/04/02 11:21:21;;;;;;;33.72;10.98;;;;;;;8.87;82.83;101550.63;5063994;28;20431;-63
2023/04/02 11:23:59;;;;;;;35.00;10.20;;;;;;;8.91;82.26;101560.75;5069938;28;20048;-63
2023/04/02 11:26:28;;;;;;;27.52;9.90;;;;;;;8.94;82.47;101567.63;5058289;28;20044;-63
2023/04/02 11:29:22;;;;;;;27.50;11.43;;;;;;;9.10;81.53;101574.69;5061128;28;20053;-63
2023/04/02 11:32:11;;;;;;;30.23;10.63;;;;;;;9.04;82.62;101562.91;5072078;28;20044;-65
2023/04/02 11:34:41;;;;;;;35.70;10.90;;;;;;;9.08;82.25;101569.47;5063305;28;20487;-63
2023/04/02 11:37:29;;;;;;;33.75;10.30;;;;;;;8.70;83.85;101572.13;5065622;28;20056;-62
2023/04/02 11:39:58;;;;;;;39.63;11.00;;;;;;;8.96;83.49;101571.72;5060872;28;20053;-62
2023/04/02 11:42:30;;;;;;;35.97;10.95;;;;;;;8.82;82.53;101591.84;5038227;28;20048;-63
2023/04/02 11:45:24;;;;;;;29.45;10.95;;;;;;;8.62;83.53;101592.75;5061591;28;20056;-63
2023/04/02 11:47:58;;;;;;;29.80;10.05;;;;;;;8.51;84.57;101601.25;5068780;28;20053;-62
2023/04/02 11:50:31;;;;;;;35.50;10.18;;;;;;;8.63;84.26;101586.13;5070664;28;20071;-65
2023/04/02 11:53:04;;;;;;;30.08;10.05;;;;;;;8.69;83.86;101584.19;5063004;28;20064;-63
2023/04/02 11:55:32;;;;;;;36.75;10.70;;;;;;;8.82;83.31;101583.63;5055370;28;20052;-63
2023/04/02 11:58:19;;;;;;;25.15;8.63;;;;;;;8.94;81.59;101586.88;5057951;28;20053;-65
2023/04/02 12:01:00;;;;;;;22.48;8.88;;;;;;;9.20;80.71;101590.31;5062710;28;20210;-64
2023/04/02 12:03:46;;;;;;;26.88;8.13;;;;;;;9.30;79.70;101604.81;5067633;28;20049;-64
2023/04/02 12:06:38;;;;;;;24.17;7.93;;;;;;;9.42;79.04;101604.47;5055875;28;20037;-65
2023/04/02 12:09:19;;;;;;;32.92;8.52;;;;;;;9.51;79.08;101602.75;5061404;28;20053;-62
2023/04/02 12:11:46;;;;;;;35.20;9.20;;;;;;;9.08;79.96;101607.94;5066683;28;20135;-64
2023/04/02 12:14:29;;;;;;;27.08;9.77;;;;;;;8.85;81.70;101627.84;5069293;28;20044;-64